sensor_id;sensor_type;location;lat;lon;timestamp;P1;durP1;ratioP1;P2;durP2;ratioP2
1350;SDS011;669;50.206;9.998;2023-07-29T00:00:52;2.53;;;2.43;;
1350;SDS011;669;50.206;9.998;2023-07-29T00:03:22;2.27;;;1.97;;
1350;SDS011;669;50.206;9.998;2023-07-29T00:05:51;1.90;;;1.80;;
1350;SDS011;669;50.206;9.998;2023-07-29T00:08:19;2.87;;;2.67;;
1350;SDS011;669;50.206;9.998;2023-07-29T00:10:48;2.53;;;2.43;;
1350;SDS011;669;50.206;9.998;2023-07-29T00:13:16;4.77;;;2.50;;
1350;SDS011;669;50.206;9.998;2023-07-29T00:15:47;2.50;;;2.30;;
1350;SDS011;669;50.206;9.998;2023-07-29T00:18:15;3.00;;;2.80;;
1350;SDS011;669;50.206;9.998;2023-07-29T00:20:44;2.57;;;2.47;;
1350;SDS011;669;50.206;9.998;2023-07-29T00:23:11;2.30;;;2.10;;
1350;SDS011;669;50.206;9.998;2023-07-29T00:25:40;2.40;;;2.30;;
1350;SDS011;669;50.206;9.998;2023-07-29T00:28:09;2.27;;;2.17;;
1350;SDS011;669;50.206;9.998;2023-07-29T00:30:37;2.50;;;2.40;;
1350;SDS011;669;50.206;9.998;2023-07-29T00:33:05;3.10;;;2.60;;
1350;SDS011;669;50.206;9.998;2023-07-29T00:35:33;3.37;;;3.07;;
1350;SDS011;669;50.206;9.998;2023-07-29T00:38:01;2.40;;;2.30;;
1350;SDS011;669;50.206;9.998;2023-07-29T00:40:29;2.53;;;2.43;;
1350;SDS011;669;50.206;9.998;2023-07-29T00:43:02;2.60;;;2.30;;
1350;SDS011;669;50.206;9.998;2023-07-29T00:45:32;2.60;;;2.23;;
1350;SDS011;669;50.206;9.998;2023-07-29T00:48:00;3.10;;;2.73;;
1350;SDS011;669;50.206;9.998;2023-07-29T00:50:29;2.57;;;2.47;;
1350;SDS011;669;50.206;9.998;2023-07-29T00:52:58;2.57;;;2.33;;
1350;SDS011;669;50.206;9.998;2023-07-29T00:55:26;3.03;;;2.83;;
1350;SDS011;669;50.206;9.998;2023-07-29T00:57:55;4.40;;;2.30;;
1350;SDS011;669;50.206;9.998;2023-07-29T01:00:24;2.83;;;2.67;;
1350;SDS011;669;50.206;9.998;2023-07-29T01:02:54;2.60;;;2.40;;
1350;SDS011;669;50.206;9.998;2023-07-29T01:05:22;2.50;;;2.40;;
1350;SDS011;669;50.206;9.998;2023-07-29T01:07:58;2.80;;;2.60;;
1350;SDS011;669;50.206;9.998;2023-07-29T01:10:35;2.60;;;2.50;;
1350;SDS011;669;50.206;9.998;2023-07-29T01:13:13;2.40;;;2.30;;
1350;SDS011;669;50.206;9.998;2023-07-29T01:15:46;2.30;;;2.20;;
1350;SDS011;669;50.206;9.998;2023-07-29T01:18:22;3.77;;;2.80;;
1350;SDS011;669;50.206;9.998;2023-07-29T01:20:54;2.60;;;2.37;;
1350;SDS011;669;50.206;9.998;2023-07-29T01:23:28;3.90;;;2.80;;
1350;SDS011;669;50.206;9.998;2023-07-29T01:25:57;2.53;;;2.33;;
1350;SDS011;669;50.206;9.998;2023-07-29T01:28:25;2.57;;;2.37;;
1350;SDS011;669;50.206;9.998;2023-07-29T01:30:56;2.40;;;2.30;;
1350;SDS011;669;50.206;9.998;2023-07-29T01:33:27;2.00;;;1.90;;
1350;SDS011;669;50.206;9.998;2023-07-29T01:36:01;2.03;;;1.93;;
1350;SDS011;669;50.206;9.998;2023-07-29T01:38:33;2.10;;;2.00;;
1350;SDS011;669;50.206;9.998;2023-07-29T01:41:04;1.83;;;1.73;;
1350;SDS011;669;50.206;9.998;2023-07-29T01:43:34;1.77;;;1.67;;
1350;SDS011;669;50.206;9.998;2023-07-29T01:46:08;2.37;;;2.23;;
1350;SDS011;669;50.206;9.998;2023-07-29T01:48:37;1.50;;;1.47;;
1350;SDS011;669;50.206;9.998;2023-07-29T01:51:05;1.53;;;1.43;;
1350;SDS011;669;50.206;9.998;2023-07-29T01:53:35;2.00;;;1.90;;
1350;SDS011;669;50.206;9.998;2023-07-29T01:56:03;1.90;;;1.80;;
1350;SDS011;669;50.206;9.998;2023-07-29T01:58:31;2.00;;;1.83;;
1350;SDS011;669;50.206;9.998;2023-07-29T02:00:59;1.73;;;1.63;;
1350;SDS011;669;50.206;9.998;2023-07-29T02:03:27;1.60;;;1.53;;
1350;SDS011;669;50.206;9.998;2023-07-29T02:05:55;1.53;;;1.53;;
1350;SDS011;669;50.206;9.998;2023-07-29T02:08:23;2.10;;;1.90;;
1350;SDS011;669;50.206;9.998;2023-07-29T02:10:52;2.27;;;2.17;;
1350;SDS011;669;50.206;9.998;2023-07-29T02:13:20;2.83;;;1.87;;
1350;SDS011;669;50.206;9.998;2023-07-29T02:15:48;2.10;;;2.00;;
1350;SDS011;669;50.206;9.998;2023-07-29T02:18:16;2.03;;;1.93;;
1350;SDS011;669;50.206;9.998;2023-07-29T02:20:44;3.07;;;2.87;;
1350;SDS011;669;50.206;9.998;2023-07-29T02:23:15;8.77;;;2.83;;
1350;SDS011;669;50.206;9.998;2023-07-29T02:25:44;2.73;;;2.60;;
1350;SDS011;669;50.206;9.998;2023-07-29T02:28:13;2.47;;;2.27;;
1350;SDS011;669;50.206;9.998;2023-07-29T02:30:42;2.00;;;1.90;;
1350;SDS011;669;50.206;9.998;2023-07-29T02:33:11;2.60;;;2.50;;
1350;SDS011;669;50.206;9.998;2023-07-29T02:35:39;2.20;;;2.10;;
1350;SDS011;669;50.206;9.998;2023-07-29T02:38:07;1.60;;;1.60;;
1350;SDS011;669;50.206;9.998;2023-07-29T02:40:35;2.30;;;2.20;;
1350;SDS011;669;50.206;9.998;2023-07-29T02:43:04;1.93;;;1.67;;
1350;SDS011;669;50.206;9.998;2023-07-29T02:45:34;2.50;;;2.30;;
1350;SDS011;669;50.206;9.998;2023-07-29T02:48:02;2.50;;;2.40;;
1350;SDS011;669;50.206;9.998;2023-07-29T02:50:30;3.47;;;3.20;;
1350;SDS011;669;50.206;9.998;2023-07-29T02:52:58;3.53;;;2.47;;
1350;SDS011;669;50.206;9.998;2023-07-29T02:55:27;2.30;;;2.20;;
1350;SDS011;669;50.206;9.998;2023-07-29T02:57:55;2.10;;;2.00;;
1350;SDS011;669;50.206;9.998;2023-07-29T03:00:23;2.30;;;2.20;;
1350;SDS011;669;50.206;9.998;2023-07-29T03:02:52;2.20;;;2.10;;
1350;SDS011;669;50.206;9.998;2023-07-29T03:05:20;2.40;;;2.30;;
1350;SDS011;669;50.206;9.998;2023-07-29T03:07:48;2.77;;;2.67;;
1350;SDS011;669;50.206;9.998;2023-07-29T03:10:16;2.97;;;2.77;;
1350;SDS011;669;50.206;9.998;2023-07-29T03:12:44;2.20;;;2.10;;
1350;SDS011;669;50.206;9.998;2023-07-29T03:15:12;3.13;;;2.93;;
1350;SDS011;669;50.206;9.998;2023-07-29T03:17:40;2.43;;;2.33;;
1350;SDS011;669;50.206;9.998;2023-07-29T03:20:10;2.60;;;2.50;;
1350;SDS011;669;50.206;9.998;2023-07-29T03:22:38;2.50;;;2.23;;
1350;SDS011;669;50.206;9.998;2023-07-29T03:25:06;2.90;;;2.70;;
1350;SDS011;669;50.206;9.998;2023-07-29T03:27:34;2.30;;;2.20;;
1350;SDS011;669;50.206;9.998;2023-07-29T03:30:03;2.40;;;2.27;;
1350;SDS011;669;50.206;9.998;2023-07-29T03:32:32;2.70;;;2.53;;
1350;SDS011;669;50.206;9.998;2023-07-29T03:35:00;2.33;;;2.23;;
1350;SDS011;669;50.206;9.998;2023-07-29T03:37:29;3.17;;;2.97;;
1350;SDS011;669;50.206;9.998;2023-07-29T03:39:57;3.17;;;2.87;;
1350;SDS011;669;50.206;9.998;2023-07-29T03:42:30;2.60;;;2.50;;
1350;SDS011;669;50.206;9.998;2023-07-29T03:44:57;3.20;;;3.00;;
1350;SDS011;669;50.206;9.998;2023-07-29T03:47:26;3.93;;;3.70;;
1350;SDS011;669;50.206;9.998;2023-07-29T03:49:54;3.83;;;3.53;;
1350;SDS011;669;50.206;9.998;2023-07-29T03:52:22;4.33;;;4.00;;
1350;SDS011;669;50.206;9.998;2023-07-29T03:54:51;3.30;;;3.10;;
1350;SDS011;669;50.206;9.998;2023-07-29T03:57:19;3.17;;;2.97;;
1350;SDS011;669;50.206;9.998;2023-07-29T03:59:47;3.70;;;3.50;;
1350;SDS011;669;50.206;9.998;2023-07-29T04:02:15;4.20;;;3.90;;
1350;SDS011;669;50.206;9.998;2023-07-29T04:04:43;5.30;;;4.90;;
1350;SDS011;669;50.206;9.998;2023-07-29T04:07:14;4.63;;;4.33;;
1350;SDS011;669;50.206;9.998;2023-07-29T04:09:42;3.80;;;3.50;;
1350;SDS011;669;50.206;9.998;2023-07-29T04:12:11;4.93;;;4.53;;
1350;SDS011;669;50.206;9.998;2023-07-29T04:14:39;4.43;;;4.13;;
1350;SDS011;669;50.206;9.998;2023-07-29T04:17:07;3.80;;;3.60;;
1350;SDS011;669;50.206;9.998;2023-07-29T04:19:36;3.60;;;3.40;;
1350;SDS011;669;50.206;9.998;2023-07-29T04:22:04;4.33;;;4.03;;
1350;SDS011;669;50.206;9.998;2023-07-29T04:24:32;4.40;;;3.93;;
1350;SDS011;669;50.206;9.998;2023-07-29T04:27:00;4.10;;;3.90;;
1350;SDS011;669;50.206;9.998;2023-07-29T04:29:29;5.20;;;4.80;;
1350;SDS011;669;50.206;9.998;2023-07-29T04:31:57;5.20;;;4.80;;
1350;SDS011;669;50.206;9.998;2023-07-29T04:34:28;5.53;;;3.60;;
1350;SDS011;669;50.206;9.998;2023-07-29T04:36:56;5.13;;;4.73;;
1350;SDS011;669;50.206;9.998;2023-07-29T04:39:24;4.07;;;3.67;;
1350;SDS011;669;50.206;9.998;2023-07-29T04:41:52;5.00;;;4.57;;
1350;SDS011;669;50.206;9.998;2023-07-29T04:44:20;4.13;;;3.83;;
1350;SDS011;669;50.206;9.998;2023-07-29T04:46:49;4.30;;;4.00;;
1350;SDS011;669;50.206;9.998;2023-07-29T04:49:17;5.13;;;4.83;;
1350;SDS011;669;50.206;9.998;2023-07-29T04:51:45;4.43;;;4.03;;
1350;SDS011;669;50.206;9.998;2023-07-29T04:54:13;5.00;;;4.60;;
1350;SDS011;669;50.206;9.998;2023-07-29T04:56:41;6.33;;;5.80;;
1350;SDS011;669;50.206;9.998;2023-07-29T04:59:09;5.63;;;4.90;;
1350;SDS011;669;50.206;9.998;2023-07-29T05:01:39;6.03;;;5.53;;
1350;SDS011;669;50.206;9.998;2023-07-29T05:04:10;7.47;;;4.60;;
1350;SDS011;669;50.206;9.998;2023-07-29T05:06:38;6.47;;;5.97;;
1350;SDS011;669;50.206;9.998;2023-07-29T05:09:12;5.70;;;5.20;;
1350;SDS011;669;50.206;9.998;2023-07-29T05:11:41;6.63;;;6.10;;
1350;SDS011;669;50.206;9.998;2023-07-29T05:14:12;4.93;;;4.63;;
1350;SDS011;669;50.206;9.998;2023-07-29T05:16:41;5.90;;;5.30;;
1350;SDS011;669;50.206;9.998;2023-07-29T05:19:10;6.40;;;5.90;;
1350;SDS011;669;50.206;9.998;2023-07-29T05:21:38;6.30;;;5.80;;
1350;SDS011;669;50.206;9.998;2023-07-29T05:24:06;6.53;;;6.00;;
1350;SDS011;669;50.206;9.998;2023-07-29T05:26:35;6.60;;;6.10;;
1350;SDS011;669;50.206;9.998;2023-07-29T05:29:03;6.73;;;6.23;;
1350;SDS011;669;50.206;9.998;2023-07-29T05:31:31;7.73;;;6.97;;
1350;SDS011;669;50.206;9.998;2023-07-29T05:33:59;6.50;;;6.00;;
1350;SDS011;669;50.206;9.998;2023-07-29T05:36:28;6.43;;;5.83;;
1350;SDS011;669;50.206;9.998;2023-07-29T05:38:56;5.67;;;5.20;;
1350;SDS011;669;50.206;9.998;2023-07-29T05:41:24;5.67;;;5.17;;
1350;SDS011;669;50.206;9.998;2023-07-29T05:43:54;5.40;;;5.00;;
1350;SDS011;669;50.206;9.998;2023-07-29T05:46:22;4.87;;;4.47;;
1350;SDS011;669;50.206;9.998;2023-07-29T05:48:50;4.93;;;4.63;;
1350;SDS011;669;50.206;9.998;2023-07-29T05:51:18;4.70;;;4.40;;
1350;SDS011;669;50.206;9.998;2023-07-29T05:53:47;5.00;;;4.60;;
1350;SDS011;669;50.206;9.998;2023-07-29T05:56:15;5.60;;;3.43;;
1350;SDS011;669;50.206;9.998;2023-07-29T05:58:43;5.73;;;4.27;;
1350;SDS011;669;50.206;9.998;2023-07-29T06:01:11;4.70;;;4.30;;
1350;SDS011;669;50.206;9.998;2023-07-29T06:03:39;4.67;;;4.37;;
1350;SDS011;669;50.206;9.998;2023-07-29T06:06:07;5.53;;;4.17;;
1350;SDS011;669;50.206;9.998;2023-07-29T06:08:35;4.33;;;4.03;;
1350;SDS011;669;50.206;9.998;2023-07-29T06:11:05;4.40;;;4.10;;
1350;SDS011;669;50.206;9.998;2023-07-29T06:13:33;7.37;;;4.80;;
1350;SDS011;669;50.206;9.998;2023-07-29T06:16:01;7.20;;;4.33;;
1350;SDS011;669;50.206;9.998;2023-07-29T06:18:29;4.30;;;4.00;;
1350;SDS011;669;50.206;9.998;2023-07-29T06:20:57;3.70;;;3.40;;
1350;SDS011;669;50.206;9.998;2023-07-29T06:23:25;4.20;;;3.90;;
1350;SDS011;669;50.206;9.998;2023-07-29T06:25:53;3.90;;;3.60;;
1350;SDS011;669;50.206;9.998;2023-07-29T06:28:22;5.37;;;4.97;;
1350;SDS011;669;50.206;9.998;2023-07-29T06:30:51;5.50;;;4.40;;
1350;SDS011;669;50.206;9.998;2023-07-29T06:33:19;3.73;;;3.47;;
1350;SDS011;669;50.206;9.998;2023-07-29T06:35:47;5.33;;;4.43;;
1350;SDS011;669;50.206;9.998;2023-07-29T06:38:15;6.83;;;4.60;;
1350;SDS011;669;50.206;9.998;2023-07-29T06:40:47;4.97;;;3.57;;
1350;SDS011;669;50.206;9.998;2023-07-29T06:43:16;3.30;;;3.10;;
1350;SDS011;669;50.206;9.998;2023-07-29T06:45:45;5.90;;;3.50;;
1350;SDS011;669;50.206;9.998;2023-07-29T06:48:13;3.50;;;3.20;;
1350;SDS011;669;50.206;9.998;2023-07-29T06:50:41;3.03;;;2.83;;
1350;SDS011;669;50.206;9.998;2023-07-29T06:53:09;3.10;;;2.90;;
1350;SDS011;669;50.206;9.998;2023-07-29T06:55:37;2.93;;;2.73;;
1350;SDS011;669;50.206;9.998;2023-07-29T06:58:05;3.43;;;3.23;;
1350;SDS011;669;50.206;9.998;2023-07-29T07:00:33;2.60;;;2.47;;
1350;SDS011;669;50.206;9.998;2023-07-29T07:03:03;3.70;;;3.40;;
1350;SDS011;669;50.206;9.998;2023-07-29T07:05:31;4.03;;;3.30;;
1350;SDS011;669;50.206;9.998;2023-07-29T07:07:59;3.83;;;3.53;;
1350;SDS011;669;50.206;9.998;2023-07-29T07:10:27;3.10;;;2.90;;
1350;SDS011;669;50.206;9.998;2023-07-29T07:12:55;3.50;;;3.20;;
1350;SDS011;669;50.206;9.998;2023-07-29T07:15:23;3.00;;;2.70;;
1350;SDS011;669;50.206;9.998;2023-07-29T07:17:51;3.33;;;3.00;;
1350;SDS011;669;50.206;9.998;2023-07-29T07:20:20;3.03;;;2.73;;
1350;SDS011;669;50.206;9.998;2023-07-29T07:22:48;3.27;;;3.07;;
1350;SDS011;669;50.206;9.998;2023-07-29T07:25:16;3.30;;;3.10;;
1350;SDS011;669;50.206;9.998;2023-07-29T07:27:44;2.93;;;2.73;;
1350;SDS011;669;50.206;9.998;2023-07-29T07:30:12;2.67;;;2.47;;
1350;SDS011;669;50.206;9.998;2023-07-29T07:32:40;5.50;;;3.47;;
1350;SDS011;669;50.206;9.998;2023-07-29T07:35:08;2.80;;;2.60;;
1350;SDS011;669;50.206;9.998;2023-07-29T07:37:37;2.80;;;2.60;;
1350;SDS011;669;50.206;9.998;2023-07-29T07:40:06;3.33;;;2.97;;
1350;SDS011;669;50.206;9.998;2023-07-29T07:42:34;3.53;;;3.23;;
1350;SDS011;669;50.206;9.998;2023-07-29T07:45:03;3.03;;;2.83;;
1350;SDS011;669;50.206;9.998;2023-07-29T07:47:31;3.90;;;2.60;;
1350;SDS011;669;50.206;9.998;2023-07-29T07:49:59;2.90;;;2.70;;
1350;SDS011;669;50.206;9.998;2023-07-29T07:52:27;3.40;;;3.10;;
1350;SDS011;669;50.206;9.998;2023-07-29T07:54:57;3.90;;;3.30;;
1350;SDS011;669;50.206;9.998;2023-07-29T07:57:25;3.93;;;3.63;;
1350;SDS011;669;50.206;9.998;2023-07-29T07:59:52;5.77;;;3.50;;
1350;SDS011;669;50.206;9.998;2023-07-29T08:02:20;3.30;;;2.80;;
1350;SDS011;669;50.206;9.998;2023-07-29T08:04:48;4.03;;;3.40;;
1350;SDS011;669;50.206;9.998;2023-07-29T08:07:16;4.60;;;3.20;;
1350;SDS011;669;50.206;9.998;2023-07-29T08:09:44;4.87;;;3.53;;
1350;SDS011;669;50.206;9.998;2023-07-29T08:12:14;3.90;;;3.10;;
1350;SDS011;669;50.206;9.998;2023-07-29T08:14:45;4.30;;;3.70;;
1350;SDS011;669;50.206;9.998;2023-07-29T08:17:13;4.83;;;3.47;;
1350;SDS011;669;50.206;9.998;2023-07-29T08:19:41;4.17;;;3.27;;
1350;SDS011;669;50.206;9.998;2023-07-29T08:22:09;3.63;;;3.07;;
1350;SDS011;669;50.206;9.998;2023-07-29T08:24:37;4.47;;;3.73;;
1350;SDS011;669;50.206;9.998;2023-07-29T08:27:06;3.57;;;2.87;;
1350;SDS011;669;50.206;9.998;2023-07-29T08:29:35;3.80;;;3.47;;
1350;SDS011;669;50.206;9.998;2023-07-29T08:32:03;4.40;;;3.70;;
1350;SDS011;669;50.206;9.998;2023-07-29T08:34:31;4.00;;;3.57;;
1350;SDS011;669;50.206;9.998;2023-07-29T08:36:59;4.50;;;4.10;;
1350;SDS011;669;50.206;9.998;2023-07-29T08:39:27;4.47;;;4.07;;
1350;SDS011;669;50.206;9.998;2023-07-29T08:41:57;4.90;;;3.80;;
1350;SDS011;669;50.206;9.998;2023-07-29T08:44:34;3.20;;;3.00;;
1350;SDS011;669;50.206;9.998;2023-07-29T08:47:07;4.13;;;3.80;;
1350;SDS011;669;50.206;9.998;2023-07-29T08:49:35;3.60;;;3.40;;
1350;SDS011;669;50.206;9.998;2023-07-29T08:52:04;4.60;;;4.20;;
1350;SDS011;669;50.206;9.998;2023-07-29T08:54:34;4.97;;;4.57;;
1350;SDS011;669;50.206;9.998;2023-07-29T08:57:02;4.23;;;3.83;;
1350;SDS011;669;50.206;9.998;2023-07-29T08:59:31;4.33;;;3.93;;
1350;SDS011;669;50.206;9.998;2023-07-29T09:02:02;3.60;;;3.40;;
1350;SDS011;669;50.206;9.998;2023-07-29T09:04:30;3.50;;;3.10;;
1350;SDS011;669;50.206;9.998;2023-07-29T09:06:58;3.80;;;3.50;;
1350;SDS011;669;50.206;9.998;2023-07-29T09:09:26;3.60;;;3.40;;
1350;SDS011;669;50.206;9.998;2023-07-29T09:11:54;3.80;;;3.50;;
1350;SDS011;669;50.206;9.998;2023-07-29T09:14:23;5.83;;;3.23;;
1350;SDS011;669;50.206;9.998;2023-07-29T09:16:51;3.33;;;3.13;;
1350;SDS011;669;50.206;9.998;2023-07-29T09:19:21;3.70;;;3.23;;
1350;SDS011;669;50.206;9.998;2023-07-29T09:21:52;2.83;;;2.63;;
1350;SDS011;669;50.206;9.998;2023-07-29T09:24:20;2.87;;;2.40;;
1350;SDS011;669;50.206;9.998;2023-07-29T09:26:48;2.23;;;2.13;;
1350;SDS011;669;50.206;9.998;2023-07-29T09:29:21;2.23;;;2.03;;
1350;SDS011;669;50.206;9.998;2023-07-29T09:31:50;2.90;;;2.53;;
1350;SDS011;669;50.206;9.998;2023-07-29T09:34:18;4.23;;;2.30;;
1350;SDS011;669;50.206;9.998;2023-07-29T09:36:47;2.10;;;2.00;;
1350;SDS011;669;50.206;9.998;2023-07-29T09:39:18;2.13;;;2.03;;
1350;SDS011;669;50.206;9.998;2023-07-29T09:41:47;2.93;;;2.10;;
1350;SDS011;669;50.206;9.998;2023-07-29T09:44:15;1.90;;;1.80;;
1350;SDS011;669;50.206;9.998;2023-07-29T09:46:45;2.83;;;1.50;;
1350;SDS011;669;50.206;9.998;2023-07-29T09:49:13;1.83;;;1.73;;
1350;SDS011;669;50.206;9.998;2023-07-29T09:51:42;1.20;;;1.20;;
1350;SDS011;669;50.206;9.998;2023-07-29T09:54:11;1.10;;;1.10;;
1350;SDS011;669;50.206;9.998;2023-07-29T09:56:41;0.80;;;0.80;;
1350;SDS011;669;50.206;9.998;2023-07-29T09:59:11;1.30;;;1.20;;
1350;SDS011;669;50.206;9.998;2023-07-29T10:01:39;1.00;;;1.00;;
1350;SDS011;669;50.206;9.998;2023-07-29T10:04:08;0.93;;;0.93;;
1350;SDS011;669;50.206;9.998;2023-07-29T10:06:39;1.00;;;1.00;;
1350;SDS011;669;50.206;9.998;2023-07-29T10:09:08;2.13;;;0.87;;
1350;SDS011;669;50.206;9.998;2023-07-29T10:11:40;1.43;;;0.90;;
1350;SDS011;669;50.206;9.998;2023-07-29T10:14:09;0.80;;;0.73;;
1350;SDS011;669;50.206;9.998;2023-07-29T10:16:38;1.13;;;1.03;;
1350;SDS011;669;50.206;9.998;2023-07-29T10:19:07;1.90;;;1.17;;
1350;SDS011;669;50.206;9.998;2023-07-29T10:21:38;0.87;;;0.87;;
1350;SDS011;669;50.206;9.998;2023-07-29T10:24:09;1.30;;;1.20;;
1350;SDS011;669;50.206;9.998;2023-07-29T10:26:43;1.30;;;1.20;;
1350;SDS011;669;50.206;9.998;2023-07-29T10:29:13;0.97;;;0.97;;
1350;SDS011;669;50.206;9.998;2023-07-29T10:31:46;1.27;;;0.90;;
1350;SDS011;669;50.206;9.998;2023-07-29T10:34:14;2.90;;;1.10;;
1350;SDS011;669;50.206;9.998;2023-07-29T10:36:42;0.83;;;0.83;;
1350;SDS011;669;50.206;9.998;2023-07-29T10:39:11;1.23;;;1.20;;
1350;SDS011;669;50.206;9.998;2023-07-29T10:41:55;0.97;;;0.97;;
1350;SDS011;669;50.206;9.998;2023-07-29T10:47:15;1.20;;;1.10;;
1350;SDS011;669;50.206;9.998;2023-07-29T10:49:45;0.97;;;0.97;;
1350;SDS011;669;50.206;9.998;2023-07-29T10:52:15;1.23;;;1.13;;
1350;SDS011;669;50.206;9.998;2023-07-29T10:54:44;0.87;;;0.87;;
1350;SDS011;669;50.206;9.998;2023-07-29T10:57:14;1.10;;;1.00;;
1350;SDS011;669;50.206;9.998;2023-07-29T10:59:53;1.10;;;1.00;;
1350;SDS011;669;50.206;9.998;2023-07-29T11:02:27;1.30;;;1.20;;
1350;SDS011;669;50.206;9.998;2023-07-29T11:04:56;1.20;;;1.00;;
1350;SDS011;669;50.206;9.998;2023-07-29T11:07:26;1.00;;;0.90;;
1350;SDS011;669;50.206;9.998;2023-07-29T11:10:01;1.00;;;1.00;;
1350;SDS011;669;50.206;9.998;2023-07-29T11:12:41;1.67;;;1.00;;
1350;SDS011;669;50.206;9.998;2023-07-29T11:15:13;1.10;;;1.10;;
1350;SDS011;669;50.206;9.998;2023-07-29T11:17:44;1.30;;;1.20;;
1350;SDS011;669;50.206;9.998;2023-07-29T11:20:14;1.23;;;1.13;;
1350;SDS011;669;50.206;9.998;2023-07-29T11:22:43;1.13;;;1.13;;
1350;SDS011;669;50.206;9.998;2023-07-29T11:25:12;2.20;;;1.30;;
1350;SDS011;669;50.206;9.998;2023-07-29T11:27:42;1.57;;;1.03;;
1350;SDS011;669;50.206;9.998;2023-07-29T11:30:11;1.83;;;1.20;;
1350;SDS011;669;50.206;9.998;2023-07-29T11:32:41;3.23;;;1.30;;
1350;SDS011;669;50.206;9.998;2023-07-29T11:35:10;1.63;;;1.43;;
1350;SDS011;669;50.206;9.998;2023-07-29T11:37:41;1.30;;;1.20;;
1350;SDS011;669;50.206;9.998;2023-07-29T11:40:13;1.47;;;1.37;;
1350;SDS011;669;50.206;9.998;2023-07-29T11:42:43;1.10;;;1.10;;
1350;SDS011;669;50.206;9.998;2023-07-29T11:45:13;1.10;;;1.10;;
1350;SDS011;669;50.206;9.998;2023-07-29T11:47:44;1.43;;;1.33;;
1350;SDS011;669;50.206;9.998;2023-07-29T11:50:13;1.23;;;1.23;;
1350;SDS011;669;50.206;9.998;2023-07-29T11:52:42;1.23;;;1.23;;
1350;SDS011;669;50.206;9.998;2023-07-29T11:55:12;1.20;;;1.10;;
1350;SDS011;669;50.206;9.998;2023-07-29T11:57:41;1.60;;;1.50;;
1350;SDS011;669;50.206;9.998;2023-07-29T12:00:11;1.13;;;1.13;;
1350;SDS011;669;50.206;9.998;2023-07-29T12:02:42;1.67;;;1.57;;
1350;SDS011;669;50.206;9.998;2023-07-29T12:05:12;1.40;;;1.27;;
1350;SDS011;669;50.206;9.998;2023-07-29T12:07:42;1.40;;;1.40;;
1350;SDS011;669;50.206;9.998;2023-07-29T12:10:11;1.13;;;1.13;;
1350;SDS011;669;50.206;9.998;2023-07-29T12:12:45;0.97;;;0.97;;
1350;SDS011;669;50.206;9.998;2023-07-29T12:15:21;1.80;;;1.70;;
1350;SDS011;669;50.206;9.998;2023-07-29T12:17:52;1.17;;;1.17;;
1350;SDS011;669;50.206;9.998;2023-07-29T12:20:23;3.13;;;1.30;;
1350;SDS011;669;50.206;9.998;2023-07-29T12:22:52;1.60;;;1.50;;
1350;SDS011;669;50.206;9.998;2023-07-29T12:25:21;1.70;;;1.33;;
1350;SDS011;669;50.206;9.998;2023-07-29T12:27:51;1.20;;;1.10;;
1350;SDS011;669;50.206;9.998;2023-07-29T12:30:21;1.07;;;1.07;;
1350;SDS011;669;50.206;9.998;2023-07-29T12:32:51;1.50;;;1.40;;
1350;SDS011;669;50.206;9.998;2023-07-29T12:35:19;1.30;;;1.20;;
1350;SDS011;669;50.206;9.998;2023-07-29T12:37:47;1.73;;;1.20;;
1350;SDS011;669;50.206;9.998;2023-07-29T12:40:26;1.10;;;1.10;;
1350;SDS011;669;50.206;9.998;2023-07-29T12:42:55;1.83;;;1.60;;
1350;SDS011;669;50.206;9.998;2023-07-29T12:45:23;2.37;;;1.20;;
1350;SDS011;669;50.206;9.998;2023-07-29T12:47:53;3.57;;;1.37;;
1350;SDS011;669;50.206;9.998;2023-07-29T12:50:21;1.53;;;1.23;;
1350;SDS011;669;50.206;9.998;2023-07-29T12:52:49;1.37;;;1.30;;
1350;SDS011;669;50.206;9.998;2023-07-29T12:55:17;1.23;;;1.13;;
1350;SDS011;669;50.206;9.998;2023-07-29T12:57:49;1.40;;;1.40;;
1350;SDS011;669;50.206;9.998;2023-07-29T13:00:18;1.10;;;1.00;;
1350;SDS011;669;50.206;9.998;2023-07-29T13:02:46;1.93;;;1.80;;
1350;SDS011;669;50.206;9.998;2023-07-29T13:05:14;1.47;;;1.33;;
1350;SDS011;669;50.206;9.998;2023-07-29T13:07:43;2.03;;;1.30;;
1350;SDS011;669;50.206;9.998;2023-07-29T13:10:11;2.03;;;1.70;;
1350;SDS011;669;50.206;9.998;2023-07-29T13:12:39;3.33;;;2.07;;
1350;SDS011;669;50.206;9.998;2023-07-29T13:15:08;1.40;;;1.30;;
1350;SDS011;669;50.206;9.998;2023-07-29T13:17:37;1.43;;;1.33;;
1350;SDS011;669;50.206;9.998;2023-07-29T13:20:07;1.10;;;1.10;;
1350;SDS011;669;50.206;9.998;2023-07-29T13:22:35;1.80;;;1.70;;
1350;SDS011;669;50.206;9.998;2023-07-29T13:25:04;1.70;;;1.60;;
1350;SDS011;669;50.206;9.998;2023-07-29T13:27:32;1.70;;;1.60;;
1350;SDS011;669;50.206;9.998;2023-07-29T13:30:00;1.83;;;1.73;;
1350;SDS011;669;50.206;9.998;2023-07-29T13:32:28;1.47;;;1.37;;
1350;SDS011;669;50.206;9.998;2023-07-29T13:34:57;1.33;;;1.30;;
1350;SDS011;669;50.206;9.998;2023-07-29T13:37:25;1.77;;;1.67;;
1350;SDS011;669;50.206;9.998;2023-07-29T13:39:53;1.73;;;1.50;;
1350;SDS011;669;50.206;9.998;2023-07-29T13:42:21;1.90;;;1.80;;
1350;SDS011;669;50.206;9.998;2023-07-29T13:44:49;2.43;;;1.50;;
1350;SDS011;669;50.206;9.998;2023-07-29T13:47:17;2.47;;;2.27;;
1350;SDS011;669;50.206;9.998;2023-07-29T13:49:44;2.63;;;2.43;;
1350;SDS011;669;50.206;9.998;2023-07-29T13:52:14;1.87;;;1.77;;
1350;SDS011;669;50.206;9.998;2023-07-29T13:54:42;2.47;;;2.00;;
1350;SDS011;669;50.206;9.998;2023-07-29T13:57:10;1.83;;;1.73;;
1350;SDS011;669;50.206;9.998;2023-07-29T13:59:38;1.80;;;1.70;;
1350;SDS011;669;50.206;9.998;2023-07-29T14:02:06;1.60;;;1.50;;
1350;SDS011;669;50.206;9.998;2023-07-29T14:04:34;1.20;;;1.20;;
1350;SDS011;669;50.206;9.998;2023-07-29T14:07:02;1.20;;;1.20;;
1350;SDS011;669;50.206;9.998;2023-07-29T14:09:32;2.10;;;1.90;;
1350;SDS011;669;50.206;9.998;2023-07-29T14:12:00;1.83;;;1.73;;
1350;SDS011;669;50.206;9.998;2023-07-29T14:14:28;1.70;;;1.60;;
1350;SDS011;669;50.206;9.998;2023-07-29T14:16:56;1.63;;;1.53;;
1350;SDS011;669;50.206;9.998;2023-07-29T14:19:24;1.67;;;1.57;;
1350;SDS011;669;50.206;9.998;2023-07-29T14:21:52;1.37;;;1.27;;
1350;SDS011;669;50.206;9.998;2023-07-29T14:24:20;1.80;;;1.60;;
1350;SDS011;669;50.206;9.998;2023-07-29T14:26:50;4.33;;;1.80;;
1350;SDS011;669;50.206;9.998;2023-07-29T14:29:18;1.80;;;1.47;;
1350;SDS011;669;50.206;9.998;2023-07-29T14:31:46;1.93;;;1.83;;
1350;SDS011;669;50.206;9.998;2023-07-29T14:34:14;1.80;;;1.70;;
1350;SDS011;669;50.206;9.998;2023-07-29T14:36:42;1.67;;;1.60;;
1350;SDS011;669;50.206;9.998;2023-07-29T14:39:10;2.37;;;1.70;;
1350;SDS011;669;50.206;9.998;2023-07-29T14:41:38;1.50;;;1.40;;
1350;SDS011;669;50.206;9.998;2023-07-29T14:44:07;1.50;;;1.50;;
1350;SDS011;669;50.206;9.998;2023-07-29T14:46:35;1.63;;;1.53;;
1350;SDS011;669;50.206;9.998;2023-07-29T14:49:03;2.43;;;1.73;;
1350;SDS011;669;50.206;9.998;2023-07-29T14:51:31;1.63;;;1.53;;
1350;SDS011;669;50.206;9.998;2023-07-29T14:53:59;1.73;;;1.63;;
1350;SDS011;669;50.206;9.998;2023-07-29T14:56:27;1.87;;;1.77;;
1350;SDS011;669;50.206;9.998;2023-07-29T14:58:55;1.53;;;1.30;;
1350;SDS011;669;50.206;9.998;2023-07-29T15:01:24;1.77;;;1.63;;
1350;SDS011;669;50.206;9.998;2023-07-29T15:03:53;1.40;;;1.30;;
1350;SDS011;669;50.206;9.998;2023-07-29T15:06:21;1.17;;;1.17;;
1350;SDS011;669;50.206;9.998;2023-07-29T15:08:49;1.40;;;1.30;;
1350;SDS011;669;50.206;9.998;2023-07-29T15:11:16;2.43;;;1.23;;
1350;SDS011;669;50.206;9.998;2023-07-29T15:13:44;1.40;;;1.30;;
1350;SDS011;669;50.206;9.998;2023-07-29T15:16:12;1.30;;;1.30;;
1350;SDS011;669;50.206;9.998;2023-07-29T15:18:42;1.20;;;1.10;;
1350;SDS011;669;50.206;9.998;2023-07-29T15:21:10;1.40;;;1.33;;
1350;SDS011;669;50.206;9.998;2023-07-29T15:23:38;1.47;;;1.40;;
1350;SDS011;669;50.206;9.998;2023-07-29T15:26:06;1.43;;;1.33;;
1350;SDS011;669;50.206;9.998;2023-07-29T15:28:34;1.83;;;1.73;;
1350;SDS011;669;50.206;9.998;2023-07-29T15:31:02;1.30;;;1.20;;
1350;SDS011;669;50.206;9.998;2023-07-29T15:33:30;1.40;;;1.30;;
1350;SDS011;669;50.206;9.998;2023-07-29T15:36:01;3.90;;;1.50;;
1350;SDS011;669;50.206;9.998;2023-07-29T15:38:30;1.80;;;1.70;;
1350;SDS011;669;50.206;9.998;2023-07-29T15:40:58;1.50;;;1.40;;
1350;SDS011;669;50.206;9.998;2023-07-29T15:43:26;2.27;;;1.53;;